createdAt,value
2022-11-12T00:00:13.523Z,25.80
2022-11-12T00:02:59.132Z,23.17
2022-11-12T00:05:45.867Z,23.98
2022-11-12T00:08:31.431Z,26.40
2022-11-12T00:11:16.958Z,23.50
2022-11-12T00:14:02.480Z,24.08
2022-11-12T00:16:48.837Z,25.85
2022-11-12T00:19:34.297Z,22.88
2022-11-12T00:22:21.100Z,22.65
2022-11-12T00:25:07.244Z,22.65
2022-11-12T00:27:52.539Z,19.42
2022-11-12T00:30:39.332Z,20.05
2022-11-12T00:33:24.794Z,20.50
2022-11-12T00:36:11.397Z,20.30
2022-11-12T00:38:57.068Z,20.70
2022-11-12T00:41:42.886Z,20.60
2022-11-12T00:44:29.521Z,20.17
2022-11-12T00:47:15.827Z,19.80
2022-11-12T00:50:01.007Z,19.58
2022-11-12T00:52:46.484Z,21.52
2022-11-12T00:55:31.922Z,18.92
2022-11-12T00:58:17.317Z,19.83
2022-11-12T01:01:12.153Z,20.52
2022-11-12T01:03:59.541Z,18.90
2022-11-12T01:06:45.161Z,20.80
2022-11-12T01:09:30.627Z,19.58
2022-11-12T01:12:16.331Z,20.17
2022-11-12T01:15:02.045Z,19.02
2022-11-12T01:17:47.533Z,18.52
2022-11-12T01:20:32.817Z,19.52
2022-11-12T01:23:18.365Z,24.15
2022-11-12T01:26:05.944Z,26.83
2022-11-12T01:28:51.837Z,23.70
2022-11-12T01:31:38.835Z,23.17
2022-11-12T01:34:24.346Z,23.15
2022-11-12T01:37:09.585Z,20.55
2022-11-12T01:39:55.191Z,21.42
2022-11-12T01:42:40.951Z,19.35
2022-11-12T01:45:26.783Z,19.63
2022-11-12T01:48:34.929Z,18.90
2022-11-12T01:51:23.164Z,18.70
2022-11-12T01:54:11.519Z,18.50
2022-11-12T01:56:57.688Z,18.67
2022-11-12T01:59:47.085Z,19.42
2022-11-12T02:02:34.358Z,18.27
2022-11-12T02:05:22.105Z,18.63
2022-11-12T02:08:11.011Z,18.30
2022-11-12T02:10:56.634Z,17.33
2022-11-12T02:13:58.986Z,16.90
2022-11-12T02:16:48.147Z,19.55
2022-11-12T02:19:37.795Z,17.92
2022-11-12T02:22:23.091Z,18.05
2022-11-12T02:25:16.446Z,17.63
2022-11-12T02:28:04.593Z,17.45
2022-11-12T02:30:50.103Z,17.30
2022-11-12T02:33:35.725Z,18.23
2022-11-12T02:36:21.968Z,17.85
2022-11-12T02:39:07.683Z,17.60
2022-11-12T02:41:53.388Z,16.95
2022-11-12T02:44:38.913Z,16.20
2022-11-12T02:47:25.413Z,17.17
2022-11-12T02:50:12.530Z,17.20
2022-11-12T02:52:57.896Z,21.33
2022-11-12T02:55:43.979Z,24.08
2022-11-12T02:58:30.064Z,24.48
2022-11-12T03:01:15.659Z,25.73
2022-11-12T03:04:01.063Z,24.13
2022-11-12T03:06:46.682Z,24.10
2022-11-12T03:09:32.529Z,24.45
2022-11-12T03:12:17.985Z,25.23
2022-11-12T03:15:03.236Z,24.52
2022-11-12T03:17:48.839Z,22.85
2022-11-12T03:20:38.707Z,21.25
2022-11-12T03:23:26.030Z,19.35
2022-11-12T03:26:11.532Z,19.17
2022-11-12T03:28:57.069Z,18.65
2022-11-12T03:31:42.937Z,18.75
2022-11-12T03:34:28.204Z,18.70
2022-11-12T03:37:13.881Z,17.80
2022-11-12T03:39:59.475Z,17.73
2022-11-12T03:42:49.259Z,18.08
2022-11-12T03:45:34.892Z,18.15
2022-11-12T03:48:20.395Z,16.88
2022-11-12T03:51:06.182Z,17.10
2022-11-12T03:53:51.322Z,17.73
2022-11-12T03:56:36.797Z,16.60
2022-11-12T03:59:22.207Z,16.05
2022-11-12T04:02:07.663Z,17.00
2022-11-12T04:05:14.695Z,17.98
2022-11-12T04:08:24.875Z,16.52
2022-11-12T04:11:13.981Z,16.33
2022-11-12T04:14:00.009Z,16.65
2022-11-12T04:17:03.894Z,16.48
2022-11-12T04:20:07.988Z,15.90
2022-11-12T04:22:53.623Z,16.10
2022-11-12T04:25:58.816Z,16.52
2022-11-12T04:29:04.589Z,16.98
2022-11-12T04:31:50.023Z,16.67
2022-11-12T04:34:35.798Z,17.60
2022-11-12T04:37:24.253Z,16.80
2022-11-12T04:40:30.130Z,16.33
2022-11-12T04:43:35.421Z,16.20
2022-11-12T04:46:21.294Z,15.63
2022-11-12T04:49:06.513Z,16.25
2022-11-12T04:52:07.068Z,17.85
2022-11-12T04:54:53.006Z,15.98
2022-11-12T04:57:38.819Z,16.75
2022-11-12T05:00:25.257Z,17.35
2022-11-12T05:03:10.859Z,16.58
2022-11-12T05:06:25.528Z,16.77
2022-11-12T05:09:10.817Z,16.00
2022-11-12T05:11:57.054Z,17.13
2022-11-12T05:14:42.421Z,16.75
2022-11-12T05:17:28.147Z,15.73
2022-11-12T05:20:14.482Z,17.48
2022-11-12T05:23:06.668Z,16.27
2022-11-12T05:25:52.955Z,17.08
2022-11-12T05:28:38.587Z,17.55
2022-11-12T05:31:23.892Z,17.15
2022-11-12T05:34:09.510Z,16.30
2022-11-12T05:36:56.508Z,16.52
2022-11-12T05:39:42.106Z,15.60
2022-11-12T05:42:27.565Z,16.90
2022-11-12T05:45:13.086Z,18.58
2022-11-12T05:47:58.588Z,19.95
2022-11-12T05:53:36.853Z,19.92
2022-11-12T05:56:22.818Z,20.35
2022-11-12T05:59:10.766Z,17.85
2022-11-12T06:01:56.009Z,20.65
2022-11-12T06:04:41.560Z,19.60
2022-11-12T06:07:27.090Z,19.52
2022-11-12T06:10:20.293Z,20.58
2022-11-12T06:13:06.717Z,19.13
2022-11-12T06:15:54.475Z,20.67
2022-11-12T06:18:39.980Z,20.42
2022-11-12T06:21:27.640Z,20.10
2022-11-12T06:24:13.430Z,19.08
2022-11-12T06:26:59.322Z,19.17
2022-11-12T06:29:44.930Z,18.75
2022-11-12T06:32:30.561Z,18.45
2022-11-12T06:35:17.580Z,18.80
2022-11-12T06:38:03.380Z,18.92
2022-11-12T06:40:48.848Z,20.25
2022-11-12T06:43:35.255Z,17.88
2022-11-12T06:46:20.862Z,16.77
2022-11-12T06:49:06.398Z,17.60
2022-11-12T06:51:52.001Z,19.45
2022-11-12T06:54:37.574Z,17.60
2022-11-12T06:57:22.992Z,17.52
2022-11-12T07:00:11.686Z,17.67
2022-11-12T07:02:56.859Z,17.50
2022-11-12T07:05:42.410Z,17.08
2022-11-12T07:08:28.455Z,18.17
2022-11-12T07:11:14.151Z,18.15
2022-11-12T07:14:00.222Z,17.88
2022-11-12T07:16:45.877Z,18.08
2022-11-12T07:19:31.396Z,17.08
2022-11-12T07:22:16.939Z,16.90
2022-11-12T07:25:02.484Z,16.65
2022-11-12T07:27:49.948Z,16.90
2022-11-12T07:30:35.535Z,17.65
2022-11-12T07:33:21.163Z,16.77
2022-11-12T07:36:08.688Z,15.60
2022-11-12T07:38:54.440Z,17.13
2022-11-12T07:41:39.691Z,17.05
2022-11-12T07:44:25.109Z,16.73
2022-11-12T07:47:10.647Z,17.25
2022-11-12T07:49:56.288Z,16.10
2022-11-12T07:52:41.815Z,17.02
2022-11-12T07:55:27.304Z,16.30
2022-11-12T07:58:12.978Z,17.38
2022-11-12T08:00:58.985Z,16.90
2022-11-12T08:03:44.557Z,18.05
2022-11-12T08:06:31.609Z,18.85
2022-11-12T08:09:17.040Z,17.65
2022-11-12T08:12:02.433Z,16.33
2022-11-12T08:14:47.916Z,16.08
2022-11-12T08:17:37.650Z,17.17
2022-11-12T08:20:23.828Z,17.70
2022-11-12T08:23:10.207Z,17.85
2022-11-12T08:26:00.193Z,17.98
2022-11-12T08:28:46.062Z,17.92
2022-11-12T08:31:31.558Z,17.60
2022-11-12T08:34:21.538Z,17.83
2022-11-12T08:37:09.129Z,18.48
2022-11-12T08:39:54.654Z,17.77
2022-11-12T08:42:40.236Z,18.70
2022-11-12T08:45:26.549Z,18.70
2022-11-12T08:48:14.371Z,17.55
2022-11-12T08:51:02.443Z,17.95
2022-11-12T08:53:47.859Z,18.65
2022-11-12T08:56:34.069Z,18.20
2022-11-12T08:59:19.622Z,18.67
2022-11-12T09:02:06.717Z,18.95
2022-11-12T09:04:52.360Z,18.63
2022-11-12T09:07:53.529Z,17.98
2022-11-12T09:10:39.868Z,17.40
2022-11-12T09:13:26.963Z,18.60
2022-11-12T09:16:12.798Z,18.08
2022-11-12T09:18:58.065Z,15.43
2022-11-12T09:21:43.391Z,15.30
2022-11-12T09:24:29.015Z,15.93
2022-11-12T09:27:14.390Z,15.88
2022-11-12T09:29:59.823Z,14.80
2022-11-12T09:32:45.292Z,15.57
2022-11-12T09:35:30.943Z,16.50
2022-11-12T09:38:17.994Z,17.77
2022-11-12T09:41:37.236Z,18.00
2022-11-12T09:44:24.344Z,18.70
2022-11-12T09:47:55.680Z,17.05
2022-11-12T09:50:53.185Z,18.33
2022-11-12T09:54:11.738Z,17.95
2022-11-12T09:56:57.428Z,17.85
2022-11-12T09:59:43.158Z,19.00
2022-11-12T10:02:51.581Z,18.08
2022-11-12T10:05:58.331Z,17.10
2022-11-12T10:09:14.092Z,17.33
2022-11-12T10:12:30.976Z,16.98
2022-11-12T10:15:56.656Z,17.27
2022-11-12T10:19:03.668Z,16.50
2022-11-12T10:22:05.997Z,17.73
2022-11-12T10:24:51.479Z,17.02
2022-11-12T10:27:41.087Z,17.50
2022-11-12T10:30:26.620Z,16.35
2022-11-12T10:33:15.232Z,16.27
2022-11-12T10:36:26.390Z,16.98
2022-11-12T10:39:32.056Z,16.38
2022-11-12T10:42:20.216Z,16.65
2022-11-12T10:45:23.180Z,16.20
2022-11-12T10:48:34.212Z,17.75
2022-11-12T10:51:32.360Z,15.20
2022-11-12T10:54:38.027Z,15.60
2022-11-12T10:57:26.283Z,16.08
2022-11-12T11:00:14.692Z,16.27
2022-11-12T11:03:02.804Z,15.10
2022-11-12T11:05:54.806Z,15.25
2022-11-12T11:08:46.207Z,15.35
2022-11-12T11:11:32.402Z,16.08
2022-11-12T11:14:26.029Z,15.80
2022-11-12T11:17:18.345Z,16.23
2022-11-12T11:20:22.735Z,16.90
2022-11-12T11:23:24.607Z,15.80
2022-11-12T11:26:42.441Z,15.68
2022-11-12T11:29:38.186Z,15.30
2022-11-12T11:32:56.748Z,16.20
2022-11-12T11:36:06.268Z,15.75
2022-11-12T11:39:25.568Z,15.27
2022-11-12T11:42:41.915Z,14.63
2022-11-12T11:45:40.760Z,15.45
2022-11-12T11:48:31.780Z,14.77
2022-11-12T11:51:44.772Z,15.82
2022-11-12T11:54:52.293Z,15.98
2022-11-12T11:58:00.684Z,15.73
2022-11-12T12:00:47.752Z,15.80
2022-11-12T12:04:14.037Z,16.02
2022-11-12T12:07:14.853Z,15.13
2022-11-12T12:10:09.063Z,15.55
2022-11-12T12:13:06.106Z,17.38
2022-11-12T12:16:01.331Z,15.50
2022-11-12T12:18:56.570Z,15.60
2022-11-12T12:21:46.883Z,15.15
2022-11-12T12:24:39.326Z,14.48
2022-11-12T12:27:37.149Z,15.50
2022-11-12T12:30:25.561Z,15.65
2022-11-12T12:33:25.815Z,15.73
2022-11-12T12:36:12.858Z,16.42
2022-11-12T12:39:17.532Z,15.13
2022-11-12T12:42:15.714Z,15.23
2022-11-12T12:45:22.985Z,16.10
2022-11-12T12:48:29.916Z,15.13
2022-11-12T12:51:15.174Z,14.93
2022-11-12T12:54:00.352Z,16.40
2022-11-12T12:56:48.011Z,15.43
2022-11-12T12:59:33.429Z,14.93
2022-11-12T13:02:24.432Z,14.52
2022-11-12T13:05:27.544Z,15.35
2022-11-12T13:08:24.098Z,14.40
2022-11-12T13:11:10.144Z,16.40
2022-11-12T13:13:55.538Z,14.57
2022-11-12T13:16:51.121Z,15.20
2022-11-12T13:19:47.777Z,15.52
2022-11-12T13:22:33.787Z,16.60
2022-11-12T13:25:19.104Z,15.43
2022-11-12T13:28:08.679Z,16.30
2022-11-12T13:30:54.435Z,16.83
2022-11-12T13:33:39.641Z,15.23
2022-11-12T13:36:27.861Z,14.98
2022-11-12T13:39:19.673Z,15.75
2022-11-12T13:42:36.483Z,16.95
2022-11-12T13:45:25.040Z,15.75
2022-11-12T13:48:17.204Z,16.42
2022-11-12T13:51:07.194Z,16.52
2022-11-12T13:53:52.779Z,17.05
2022-11-12T13:56:39.062Z,17.25
2022-11-12T13:59:25.993Z,16.48
2022-11-12T14:02:24.938Z,16.48
2022-11-12T14:05:16.137Z,15.43
2022-11-12T14:08:25.345Z,15.60
2022-11-12T14:11:29.204Z,14.80
2022-11-12T14:14:30.227Z,15.38
2022-11-12T14:17:47.867Z,14.73
2022-11-12T14:20:38.804Z,14.13
2022-11-12T14:23:25.549Z,15.57
2022-11-12T14:26:13.254Z,16.35
2022-11-12T14:28:59.292Z,15.25
2022-11-12T14:31:45.515Z,16.52
2022-11-12T14:34:34.508Z,17.25
2022-11-12T14:37:39.812Z,14.93
2022-11-12T14:40:30.470Z,15.38
2022-11-12T14:43:31.095Z,16.15
2022-11-12T14:49:27.931Z,12.68
2022-11-12T14:52:18.436Z,14.57
2022-11-12T14:55:12.030Z,14.00
2022-11-12T14:57:59.314Z,15.38
2022-11-12T15:00:51.090Z,15.32
2022-11-12T15:03:36.314Z,15.35
2022-11-12T15:06:35.632Z,16.35
2022-11-12T15:09:41.545Z,16.05
2022-11-12T15:12:31.109Z,15.13
2022-11-12T15:15:22.283Z,15.37
2022-11-12T15:18:18.941Z,16.40
2022-11-12T15:21:22.870Z,16.40
2022-11-12T15:24:17.089Z,15.05
2022-11-12T15:27:36.232Z,14.05
2022-11-12T15:30:29.922Z,15.10
2022-11-12T15:33:21.137Z,14.80
2022-11-12T15:36:19.356Z,14.68
2022-11-12T15:39:12.247Z,14.95
2022-11-12T15:42:03.156Z,14.70
2022-11-12T15:44:48.886Z,13.93
2022-11-12T15:47:34.619Z,14.93
2022-11-12T15:50:22.927Z,15.07
2022-11-12T15:53:08.286Z,14.13
2022-11-12T15:55:53.963Z,15.18
2022-11-12T15:58:40.519Z,15.38
2022-11-12T16:01:25.941Z,15.15
2022-11-12T16:04:14.461Z,15.50
2022-11-12T16:07:00.593Z,15.38
2022-11-12T16:09:46.410Z,14.98
2022-11-12T16:12:31.792Z,16.25
2022-11-12T16:15:20.290Z,15.38
2022-11-12T16:18:05.730Z,16.50
2022-11-12T16:20:51.334Z,15.73
2022-11-12T16:23:37.334Z,16.40
2022-11-12T16:26:29.236Z,15.98
2022-11-12T16:29:15.259Z,16.10
2022-11-12T16:32:00.688Z,16.42
2022-11-12T16:34:46.115Z,17.13
2022-11-12T16:37:32.098Z,17.05
2022-11-12T16:40:20.829Z,17.50
2022-11-12T16:43:06.076Z,17.08
2022-11-12T16:45:51.561Z,17.35
2022-11-12T16:48:38.165Z,17.25
2022-11-12T16:51:23.561Z,16.83
2022-11-12T16:54:09.189Z,18.13
2022-11-12T16:56:54.537Z,17.00
2022-11-12T16:59:40.230Z,16.52
2022-11-12T17:02:25.584Z,16.85
2022-11-12T17:05:17.308Z,17.08
2022-11-12T17:08:02.855Z,18.42
2022-11-12T17:10:48.346Z,18.10
2022-11-12T17:13:33.631Z,17.73
2022-11-12T17:16:19.383Z,19.05
2022-11-12T17:19:05.488Z,18.58
2022-11-12T17:21:51.028Z,18.42
2022-11-12T17:24:36.395Z,18.75
2022-11-12T17:27:21.936Z,18.15
2022-11-12T17:30:07.690Z,19.40
2022-11-12T17:32:53.223Z,19.73
2022-11-12T17:35:38.556Z,19.17
2022-11-12T17:38:24.307Z,18.77
2022-11-12T17:41:10.542Z,21.05
2022-11-12T17:43:57.942Z,20.90
2022-11-12T17:46:44.752Z,21.60
2022-11-12T17:49:29.946Z,22.10
2022-11-12T17:52:15.732Z,23.02
2022-11-12T17:55:01.127Z,22.27
2022-11-12T17:57:48.924Z,24.20
2022-11-12T18:00:35.599Z,23.98
2022-11-12T18:03:21.265Z,25.58
2022-11-12T18:06:07.437Z,25.63
2022-11-12T18:08:54.544Z,26.90
2022-11-12T18:11:51.284Z,27.20
2022-11-12T18:14:36.573Z,25.83
2022-11-12T18:17:21.875Z,27.90
2022-11-12T18:20:08.098Z,28.50
2022-11-12T18:22:53.210Z,31.15
2022-11-12T18:25:38.838Z,33.67
2022-11-12T18:28:24.427Z,37.10
2022-11-12T18:31:12.589Z,38.80
2022-11-12T18:33:58.468Z,47.22
2022-11-12T18:36:44.722Z,54.33
2022-11-12T18:39:30.858Z,60.63
2022-11-12T18:42:16.106Z,64.75
2022-11-12T18:45:01.600Z,76.35
2022-11-12T18:47:47.187Z,78.72
2022-11-12T18:50:32.700Z,79.35
2022-11-12T18:53:18.256Z,79.97
2022-11-12T18:56:10.338Z,81.78
2022-11-12T18:58:56.133Z,82.00
2022-11-12T19:01:42.327Z,80.15
2022-11-12T19:04:29.081Z,80.22
2022-11-12T19:07:14.623Z,78.43
2022-11-12T19:10:00.112Z,75.00
2022-11-12T19:12:45.505Z,77.53
2022-11-12T19:15:34.045Z,74.28
2022-11-12T19:18:19.955Z,74.32
2022-11-12T19:21:17.854Z,70.28
2022-11-12T19:24:03.620Z,71.47
2022-11-12T19:26:49.021Z,69.60
2022-11-12T19:29:34.459Z,69.10
2022-11-12T19:32:20.393Z,68.93
2022-11-12T19:35:06.725Z,65.70
2022-11-12T19:37:51.967Z,65.85
2022-11-12T19:40:37.489Z,67.00
2022-11-12T19:43:24.538Z,65.35
2022-11-12T19:46:11.178Z,63.25
2022-11-12T19:48:57.114Z,62.95
2022-11-12T19:51:42.509Z,62.70
2022-11-12T19:54:27.980Z,60.90
2022-11-12T19:57:14.035Z,60.05
2022-11-12T19:59:59.447Z,57.45
2022-11-12T20:02:44.910Z,55.72
2022-11-12T20:05:30.410Z,57.25
2022-11-12T20:08:16.213Z,55.38
2022-11-12T20:11:02.304Z,53.63
2022-11-12T20:13:47.805Z,55.55
2022-11-12T20:16:33.460Z,52.95
2022-11-12T20:19:18.765Z,51.22
2022-11-12T20:22:04.225Z,49.78
2022-11-12T20:24:49.849Z,49.65
2022-11-12T20:27:35.932Z,50.33
2022-11-12T20:30:21.360Z,51.63
2022-11-12T20:33:06.747Z,52.20
2022-11-12T20:35:52.450Z,51.65
2022-11-12T20:38:39.485Z,50.42
2022-11-12T20:41:26.654Z,51.90
2022-11-12T20:44:13.454Z,51.72
2022-11-12T20:46:58.998Z,50.70
2022-11-12T20:49:44.191Z,52.55
2022-11-12T20:52:29.760Z,51.83
2022-11-12T20:55:15.316Z,51.60
2022-11-12T20:58:00.557Z,50.30
2022-11-12T21:00:46.504Z,50.55
2022-11-12T21:03:31.982Z,54.42
2022-11-12T21:06:23.641Z,52.53
2022-11-12T21:09:08.858Z,55.65
2022-11-12T21:11:54.544Z,57.58
2022-11-12T21:14:39.655Z,61.58
2022-11-12T21:17:26.251Z,62.70
2022-11-12T21:20:11.819Z,58.90
2022-11-12T21:22:57.623Z,65.57
2022-11-12T21:25:42.971Z,68.30
2022-11-12T21:28:28.839Z,64.03
2022-11-12T21:31:16.920Z,64.20
2022-11-12T21:34:04.459Z,64.90
2022-11-12T21:36:51.205Z,63.08
2022-11-12T21:39:36.888Z,62.80
2022-11-12T21:42:22.469Z,60.10
2022-11-12T21:45:08.950Z,64.57
2022-11-12T21:47:54.501Z,61.58
2022-11-12T21:50:40.139Z,59.75
2022-11-12T21:53:25.683Z,58.53
2022-11-12T21:56:16.265Z,58.20
2022-11-12T21:59:04.280Z,52.33
2022-11-12T22:01:49.579Z,52.58
2022-11-12T22:04:35.007Z,54.53
2022-11-12T22:07:20.617Z,54.10
2022-11-12T22:10:06.547Z,53.88
2022-11-12T22:13:19.690Z,51.40
2022-11-12T22:15:57.615Z,51.22
2022-11-12T22:18:46.539Z,47.33
2022-11-12T22:21:38.448Z,48.47
2022-11-12T22:24:25.509Z,49.15
2022-11-12T22:27:11.275Z,46.28
2022-11-12T22:29:57.043Z,47.78
2022-11-12T22:32:42.557Z,44.38
2022-11-12T22:35:28.022Z,43.78
2022-11-12T22:38:14.582Z,44.00
2022-11-12T22:41:05.101Z,44.50
2022-11-12T22:43:55.536Z,43.05
2022-11-12T22:46:40.899Z,42.78
2022-11-12T22:49:26.465Z,42.22
2022-11-12T22:52:12.444Z,40.83
2022-11-12T22:54:57.792Z,40.22
2022-11-12T22:57:43.487Z,39.40
2022-11-12T23:00:31.377Z,41.15
2022-11-12T23:03:16.865Z,37.47
2022-11-12T23:06:06.048Z,37.92
2022-11-12T23:08:53.676Z,35.38
2022-11-12T23:11:39.410Z,38.10
2022-11-12T23:14:25.069Z,35.95
2022-11-12T23:17:11.767Z,36.15
2022-11-12T23:19:57.346Z,32.58
2022-11-12T23:22:42.851Z,35.50
2022-11-12T23:25:28.597Z,35.90
2022-11-12T23:28:14.022Z,32.58
2022-11-12T23:31:00.011Z,34.78
2022-11-12T23:33:46.610Z,33.42
2022-11-12T23:36:32.510Z,30.85
2022-11-12T23:39:18.061Z,30.13
2022-11-12T23:42:03.574Z,31.88
2022-11-12T23:44:49.214Z,32.00
2022-11-12T23:47:34.762Z,31.50
2022-11-12T23:50:20.264Z,31.20
2022-11-12T23:53:05.943Z,30.98
2022-11-12T23:55:51.178Z,30.83
2022-11-12T23:58:38.017Z,31.48
